sensor_id;sensor_type;location;lat;lon;timestamp;temperature;humidity
3980;DHT22;2004;52.452;13.120;2023-08-07T00:06:16;14.80;99.90
3980;DHT22;2004;52.452;13.120;2023-08-07T00:14:06;14.80;99.90
3980;DHT22;2004;52.452;13.120;2023-08-07T00:21:57;14.80;99.90
3980;DHT22;2004;52.452;13.120;2023-08-07T00:29:47;14.70;99.90
3980;DHT22;2004;52.452;13.120;2023-08-07T00:37:38;14.70;99.90
3980;DHT22;2004;52.452;13.120;2023-08-07T00:45:28;14.70;99.90
3980;DHT22;2004;52.452;13.120;2023-08-07T00:53:19;14.70;99.90
3980;DHT22;2004;52.452;13.120;2023-08-07T01:01:09;14.60;99.90
3980;DHT22;2004;52.452;13.120;2023-08-07T01:09:00;14.60;99.90
3980;DHT22;2004;52.452;13.120;2023-08-07T01:17:02;14.60;99.90
3980;DHT22;2004;52.452;13.120;2023-08-07T01:24:55;14.60;99.90
3980;DHT22;2004;52.452;13.120;2023-08-07T01:33:10;14.60;99.90
3980;DHT22;2004;52.452;13.120;2023-08-07T01:41:03;14.60;99.90
3980;DHT22;2004;52.452;13.120;2023-08-07T01:48:53;14.70;99.90
3980;DHT22;2004;52.452;13.120;2023-08-07T01:56:44;14.70;99.90
3980;DHT22;2004;52.452;13.120;2023-08-07T02:04:34;14.70;99.90
3980;DHT22;2004;52.452;13.120;2023-08-07T02:12:25;14.70;99.90
3980;DHT22;2004;52.452;13.120;2023-08-07T02:20:16;14.70;99.90
3980;DHT22;2004;52.452;13.120;2023-08-07T02:28:07;14.70;99.90
3980;DHT22;2004;52.452;13.120;2023-08-07T02:35:57;14.70;99.90
3980;DHT22;2004;52.452;13.120;2023-08-07T02:43:48;14.70;99.90
3980;DHT22;2004;52.452;13.120;2023-08-07T02:51:38;14.70;99.90
3980;DHT22;2004;52.452;13.120;2023-08-07T02:59:29;14.70;99.90
3980;DHT22;2004;52.452;13.120;2023-08-07T03:07:19;14.80;99.90
3980;DHT22;2004;52.452;13.120;2023-08-07T03:15:10;14.80;99.90
3980;DHT22;2004;52.452;13.120;2023-08-07T03:23:00;14.80;99.90
3980;DHT22;2004;52.452;13.120;2023-08-07T03:30:51;14.80;99.90
3980;DHT22;2004;52.452;13.120;2023-08-07T03:38:41;14.80;99.90
3980;DHT22;2004;52.452;13.120;2023-08-07T03:46:32;14.80;99.90
3980;DHT22;2004;52.452;13.120;2023-08-07T03:54:22;14.80;99.90
3980;DHT22;2004;52.452;13.120;2023-08-07T04:02:13;14.80;99.90
3980;DHT22;2004;52.452;13.120;2023-08-07T04:10:04;14.80;99.90
3980;DHT22;2004;52.452;13.120;2023-08-07T04:17:54;14.70;99.90
3980;DHT22;2004;52.452;13.120;2023-08-07T04:25:46;14.70;99.90
3980;DHT22;2004;52.452;13.120;2023-08-07T04:33:37;14.70;99.90
3980;DHT22;2004;52.452;13.120;2023-08-07T04:41:27;14.70;99.90
3980;DHT22;2004;52.452;13.120;2023-08-07T04:49:18;14.70;99.90
3980;DHT22;2004;52.452;13.120;2023-08-07T04:57:08;14.60;99.90
3980;DHT22;2004;52.452;13.120;2023-08-07T05:04:59;14.60;99.90
3980;DHT22;2004;52.452;13.120;2023-08-07T05:12:49;14.60;99.90
3980;DHT22;2004;52.452;13.120;2023-08-07T05:20:45;14.50;99.90
3980;DHT22;2004;52.452;13.120;2023-08-07T05:28:36;14.60;99.90
3980;DHT22;2004;52.452;13.120;2023-08-07T05:36:26;14.60;99.90
3980;DHT22;2004;52.452;13.120;2023-08-07T05:44:17;14.70;99.90
3980;DHT22;2004;52.452;13.120;2023-08-07T05:52:07;14.80;99.90
3980;DHT22;2004;52.452;13.120;2023-08-07T05:59:58;15.00;99.90
3980;DHT22;2004;52.452;13.120;2023-08-07T06:07:48;15.10;99.90
3980;DHT22;2004;52.452;13.120;2023-08-07T06:15:39;15.10;99.90
3980;DHT22;2004;52.452;13.120;2023-08-07T06:23:30;15.20;99.90
3980;DHT22;2004;52.452;13.120;2023-08-07T06:31:20;15.30;99.90
3980;DHT22;2004;52.452;13.120;2023-08-07T06:39:10;15.40;99.90
3980;DHT22;2004;52.452;13.120;2023-08-07T06:47:01;15.50;99.90
3980;DHT22;2004;52.452;13.120;2023-08-07T06:54:51;15.70;99.90
3980;DHT22;2004;52.452;13.120;2023-08-07T07:02:42;15.90;99.90
3980;DHT22;2004;52.452;13.120;2023-08-07T07:10:33;16.00;99.90
3980;DHT22;2004;52.452;13.120;2023-08-07T07:18:23;16.10;99.90
3980;DHT22;2004;52.452;13.120;2023-08-07T07:26:14;16.20;99.90
3980;DHT22;2004;52.452;13.120;2023-08-07T07:34:04;16.20;99.90
3980;DHT22;2004;52.452;13.120;2023-08-07T07:41:55;16.30;99.90
3980;DHT22;2004;52.452;13.120;2023-08-07T07:49:46;16.40;99.90
3980;DHT22;2004;52.452;13.120;2023-08-07T07:57:38;16.50;99.90
3980;DHT22;2004;52.452;13.120;2023-08-07T08:05:28;16.60;99.90
3980;DHT22;2004;52.452;13.120;2023-08-07T08:13:20;16.60;99.90
3980;DHT22;2004;52.452;13.120;2023-08-07T08:21:10;16.70;99.90
3980;DHT22;2004;52.452;13.120;2023-08-07T08:29:01;16.80;99.90
3980;DHT22;2004;52.452;13.120;2023-08-07T08:36:51;16.80;99.90
3980;DHT22;2004;52.452;13.120;2023-08-07T08:44:46;16.90;99.90
3980;DHT22;2004;52.452;13.120;2023-08-07T08:52:38;17.20;99.90
3980;DHT22;2004;52.452;13.120;2023-08-07T09:00:29;17.30;99.90
3980;DHT22;2004;52.452;13.120;2023-08-07T09:08:22;17.30;99.90
3980;DHT22;2004;52.452;13.120;2023-08-07T09:16:13;17.20;99.90
3980;DHT22;2004;52.452;13.120;2023-08-07T09:24:04;17.30;99.90
3980;DHT22;2004;52.452;13.120;2023-08-07T09:31:55;17.60;99.90
3980;DHT22;2004;52.452;13.120;2023-08-07T09:39:46;17.70;99.90
3980;DHT22;2004;52.452;13.120;2023-08-07T09:47:36;17.80;99.90
3980;DHT22;2004;52.452;13.120;2023-08-07T09:55:27;17.90;99.90
3980;DHT22;2004;52.452;13.120;2023-08-07T10:03:18;17.90;99.90
3980;DHT22;2004;52.452;13.120;2023-08-07T10:11:09;18.00;99.90
3980;DHT22;2004;52.452;13.120;2023-08-07T10:19:00;18.10;99.90
3980;DHT22;2004;52.452;13.120;2023-08-07T10:26:51;18.10;99.90
3980;DHT22;2004;52.452;13.120;2023-08-07T10:34:47;18.20;99.90
3980;DHT22;2004;52.452;13.120;2023-08-07T10:58:50;18.10;99.90
3980;DHT22;2004;52.452;13.120;2023-08-07T11:06:48;18.00;99.90
3980;DHT22;2004;52.452;13.120;2023-08-07T11:14:41;17.90;99.90
3980;DHT22;2004;52.452;13.120;2023-08-07T11:22:31;17.90;99.90
3980;DHT22;2004;52.452;13.120;2023-08-07T11:30:21;17.90;99.90
3980;DHT22;2004;52.452;13.120;2023-08-07T11:38:12;17.70;99.90
3980;DHT22;2004;52.452;13.120;2023-08-07T11:46:07;17.90;99.90
3980;DHT22;2004;52.452;13.120;2023-08-07T11:53:58;18.30;99.90
3980;DHT22;2004;52.452;13.120;2023-08-07T12:01:49;18.10;99.90
3980;DHT22;2004;52.452;13.120;2023-08-07T12:09:41;18.20;99.90
3980;DHT22;2004;52.452;13.120;2023-08-07T12:17:31;18.40;99.90
3980;DHT22;2004;52.452;13.120;2023-08-07T12:25:22;18.70;99.90
3980;DHT22;2004;52.452;13.120;2023-08-07T12:33:13;18.70;99.90
3980;DHT22;2004;52.452;13.120;2023-08-07T12:41:04;18.80;99.90
3980;DHT22;2004;52.452;13.120;2023-08-07T12:48:54;19.00;99.90
3980;DHT22;2004;52.452;13.120;2023-08-07T12:56:45;18.60;99.90
3980;DHT22;2004;52.452;13.120;2023-08-07T13:04:35;17.80;99.90
3980;DHT22;2004;52.452;13.120;2023-08-07T13:12:26;17.60;99.90
3980;DHT22;2004;52.452;13.120;2023-08-07T13:20:16;17.70;99.90
3980;DHT22;2004;52.452;13.120;2023-08-07T13:28:07;17.40;99.90
3980;DHT22;2004;52.452;13.120;2023-08-07T13:35:58;17.30;99.90
3980;DHT22;2004;52.452;13.120;2023-08-07T13:43:48;17.20;99.90
3980;DHT22;2004;52.452;13.120;2023-08-07T13:51:40;17.30;99.90
3980;DHT22;2004;52.452;13.120;2023-08-07T13:59:30;17.70;99.90
3980;DHT22;2004;52.452;13.120;2023-08-07T14:07:21;17.90;99.90
3980;DHT22;2004;52.452;13.120;2023-08-07T14:15:13;17.90;99.90
3980;DHT22;2004;52.452;13.120;2023-08-07T14:23:03;18.00;99.90
3980;DHT22;2004;52.452;13.120;2023-08-07T14:30:57;18.00;99.90
3980;DHT22;2004;52.452;13.120;2023-08-07T14:38:48;18.00;99.90
3980;DHT22;2004;52.452;13.120;2023-08-07T14:46:39;18.20;99.90
3980;DHT22;2004;52.452;13.120;2023-08-07T14:54:29;18.50;99.90
3980;DHT22;2004;52.452;13.120;2023-08-07T15:02:20;18.60;99.90
3980;DHT22;2004;52.452;13.120;2023-08-07T15:10:10;18.60;99.90
3980;DHT22;2004;52.452;13.120;2023-08-07T15:18:00;18.60;99.90
3980;DHT22;2004;52.452;13.120;2023-08-07T15:25:53;18.50;99.90
3980;DHT22;2004;52.452;13.120;2023-08-07T15:33:44;18.40;99.90
3980;DHT22;2004;52.452;13.120;2023-08-07T15:41:39;18.50;99.90
3980;DHT22;2004;52.452;13.120;2023-08-07T15:49:29;18.60;98.90
3980;DHT22;2004;52.452;13.120;2023-08-07T15:57:20;18.70;99.60
3980;DHT22;2004;52.452;13.120;2023-08-07T16:05:10;18.60;99.90
3980;DHT22;2004;52.452;13.120;2023-08-07T16:13:01;18.40;99.90
3980;DHT22;2004;52.452;13.120;2023-08-07T16:20:51;18.50;97.10
3980;DHT22;2004;52.452;13.120;2023-08-07T16:28:43;18.40;96.30
3980;DHT22;2004;52.452;13.120;2023-08-07T16:36:36;18.20;95.40
3980;DHT22;2004;52.452;13.120;2023-08-07T16:44:26;18.10;97.00
3980;DHT22;2004;52.452;13.120;2023-08-07T16:52:17;18.10;97.70
3980;DHT22;2004;52.452;13.120;2023-08-07T17:00:08;18.10;96.30
3980;DHT22;2004;52.452;13.120;2023-08-07T17:08:00;18.10;95.90
3980;DHT22;2004;52.452;13.120;2023-08-07T17:15:51;18.00;96.50
3980;DHT22;2004;52.452;13.120;2023-08-07T17:23:42;18.00;98.00
3980;DHT22;2004;52.452;13.120;2023-08-07T17:31:32;17.90;97.30
3980;DHT22;2004;52.452;13.120;2023-08-07T17:39:23;17.80;97.00
3980;DHT22;2004;52.452;13.120;2023-08-07T17:47:13;17.70;96.20
3980;DHT22;2004;52.452;13.120;2023-08-07T17:55:04;17.60;96.50
3980;DHT22;2004;52.452;13.120;2023-08-07T18:02:55;17.40;94.60
3980;DHT22;2004;52.452;13.120;2023-08-07T18:10:45;17.30;95.60
3980;DHT22;2004;52.452;13.120;2023-08-07T18:18:36;17.30;95.80
3980;DHT22;2004;52.452;13.120;2023-08-07T18:26:27;17.20;96.00
3980;DHT22;2004;52.452;13.120;2023-08-07T18:34:17;17.10;96.60
3980;DHT22;2004;52.452;13.120;2023-08-07T18:42:08;17.00;96.80
3980;DHT22;2004;52.452;13.120;2023-08-07T18:49:58;17.00;97.40
3980;DHT22;2004;52.452;13.120;2023-08-07T18:57:49;16.90;97.10
3980;DHT22;2004;52.452;13.120;2023-08-07T19:05:39;16.80;98.00
3980;DHT22;2004;52.452;13.120;2023-08-07T19:13:30;16.80;98.40
3980;DHT22;2004;52.452;13.120;2023-08-07T19:21:20;16.70;98.10
3980;DHT22;2004;52.452;13.120;2023-08-07T19:29:11;16.70;99.20
3980;DHT22;2004;52.452;13.120;2023-08-07T19:37:02;16.40;99.90
3980;DHT22;2004;52.452;13.120;2023-08-07T19:44:53;16.30;99.90
3980;DHT22;2004;52.452;13.120;2023-08-07T19:52:43;16.20;99.90
3980;DHT22;2004;52.452;13.120;2023-08-07T20:00:34;16.10;99.90
3980;DHT22;2004;52.452;13.120;2023-08-07T20:08:25;16.00;99.90
3980;DHT22;2004;52.452;13.120;2023-08-07T20:16:15;16.00;99.90
3980;DHT22;2004;52.452;13.120;2023-08-07T20:24:06;15.90;99.90
3980;DHT22;2004;52.452;13.120;2023-08-07T20:31:57;15.90;99.90
3980;DHT22;2004;52.452;13.120;2023-08-07T20:39:49;15.80;99.90
3980;DHT22;2004;52.452;13.120;2023-08-07T20:47:40;15.80;99.90
3980;DHT22;2004;52.452;13.120;2023-08-07T20:55:30;15.70;99.90
3980;DHT22;2004;52.452;13.120;2023-08-07T21:03:21;15.70;99.90
3980;DHT22;2004;52.452;13.120;2023-08-07T21:11:11;15.60;99.90
3980;DHT22;2004;52.452;13.120;2023-08-07T21:19:02;15.60;99.90
3980;DHT22;2004;52.452;13.120;2023-08-07T21:26:52;15.60;99.90
3980;DHT22;2004;52.452;13.120;2023-08-07T21:34:43;15.50;99.90
3980;DHT22;2004;52.452;13.120;2023-08-07T21:42:33;15.50;99.90
3980;DHT22;2004;52.452;13.120;2023-08-07T21:50:24;15.40;99.90
3980;DHT22;2004;52.452;13.120;2023-08-07T21:58:14;15.40;99.90
3980;DHT22;2004;52.452;13.120;2023-08-07T22:06:05;15.30;99.90
3980;DHT22;2004;52.452;13.120;2023-08-07T22:13:55;15.20;99.90
3980;DHT22;2004;52.452;13.120;2023-08-07T22:21:46;15.20;99.90
3980;DHT22;2004;52.452;13.120;2023-08-07T22:29:38;15.10;99.90
3980;DHT22;2004;52.452;13.120;2023-08-07T22:37:28;15.00;99.90
3980;DHT22;2004;52.452;13.120;2023-08-07T22:45:19;14.90;99.90
3980;DHT22;2004;52.452;13.120;2023-08-07T22:53:09;14.80;99.90
3980;DHT22;2004;52.452;13.120;2023-08-07T23:01:00;14.80;99.90
3980;DHT22;2004;52.452;13.120;2023-08-07T23:08:51;14.70;99.90
3980;DHT22;2004;52.452;13.120;2023-08-07T23:16:42;14.70;99.90
3980;DHT22;2004;52.452;13.120;2023-08-07T23:24:33;14.70;99.90
3980;DHT22;2004;52.452;13.120;2023-08-07T23:32:24;14.70;99.90
3980;DHT22;2004;52.452;13.120;2023-08-07T23:40:14;14.60;99.90
3980;DHT22;2004;52.452;13.120;2023-08-07T23:48:05;14.60;99.90
3980;DHT22;2004;52.452;13.120;2023-08-07T23:55:56;14.50;99.90
